Time;durP1;ratioP1;P1;durP2;ratioP2;P2;SDS_P1;SDS_P2;PMS_P1;PMS_P2;Temp;Humidity;BMP_temperature;BMP_pressure;BME280_temperature;BME280_humidity;BME280_pressure;Samples;Min_cycle;Max_cycle;Signal;HPM_P1;HPM_P2
2021/09/08 00:00:51;;;;;;;12.27;7.75;;;19.30;67.90;;;;;;5032392;28;20092;-91
2021/09/08 00:03:18;;;;;;;10.60;7.78;;;19.20;67.80;;;;;;5031902;28;20060;-91
2021/09/08 00:05:45;;;;;;;12.23;8.02;;;19.20;67.80;;;;;;5032942;28;20053;-90
2021/09/08 00:08:12;;;;;;;12.48;8.10;;;19.20;67.80;;;;;;5032064;28;20046;-89
2021/09/08 00:10:39;;;;;;;11.23;7.97;;;19.20;67.90;;;;;;5032320;28;20423;-91
2021/09/08 00:13:06;;;;;;;10.68;7.40;;;19.10;68.00;;;;;;5032082;28;20495;-90
2021/09/08 00:15:33;;;;;;;11.32;7.75;;;19.10;68.10;;;;;;5032044;28;20103;-90
2021/09/08 00:18:00;;;;;;;15.35;7.95;;;19.10;68.10;;;;;;5031984;28;20107;-91
2021/09/08 00:20:27;;;;;;;14.45;7.75;;;19.00;68.20;;;;;;5032435;28;20053;-90
2021/09/08 00:22:54;;;;;;;11.88;6.78;;;19.00;68.50;;;;;;5030771;28;20050;-91
2021/09/08 00:25:21;;;;;;;10.75;7.00;;;18.90;68.70;;;;;;5031915;28;20471;-91
2021/09/08 00:27:48;;;;;;;9.73;6.50;;;18.90;68.90;;;;;;5032231;28;20087;-92
2021/09/08 00:30:15;;;;;;;8.45;6.70;;;18.90;68.90;;;;;;5030738;28;20061;-92
2021/09/08 00:32:42;;;;;;;10.85;7.63;;;18.90;68.80;;;;;;5032421;28;20057;-91
2021/09/08 00:35:09;;;;;;;10.38;6.70;;;18.90;68.70;;;;;;5030505;28;20542;-90
2021/09/08 00:37:39;;;;;;;8.57;6.38;;;18.80;68.60;;;;;;5031610;28;20073;-90
2021/09/08 00:40:08;;;;;;;12.13;7.47;;;18.80;68.40;;;;;;5031635;28;20050;-91
2021/09/08 00:42:35;;;;;;;11.88;8.05;;;18.70;68.30;;;;;;5031715;28;20064;-92
2021/09/08 00:45:04;;;;;;;11.05;6.90;;;18.60;68.20;;;;;;5031884;28;20046;-92
2021/09/08 00:47:31;;;;;;;11.20;7.97;;;18.60;68.20;;;;;;5031332;28;20053;-92
2021/09/08 00:49:58;;;;;;;9.68;6.53;;;18.50;68.20;;;;;;5031793;28;20107;-91
2021/09/08 00:52:25;;;;;;;11.05;7.13;;;18.50;68.30;;;;;;5031324;28;20050;-91
2021/09/08 00:54:54;;;;;;;10.43;7.00;;;18.50;68.30;;;;;;5030630;28;20099;-91
2021/09/08 00:57:21;;;;;;;9.43;7.07;;;18.40;68.30;;;;;;5031502;28;20049;-90
2021/09/08 00:59:49;;;;;;;10.32;6.90;;;18.40;68.30;;;;;;5031820;28;20050;-91
2021/09/08 01:02:16;;;;;;;14.20;7.50;;;18.40;68.40;;;;;;5031456;28;20108;-90
2021/09/08 01:04:43;;;;;;;10.77;6.68;;;18.40;68.60;;;;;;5030408;28;20048;-89
2021/09/08 01:07:10;;;;;;;9.73;6.68;;;18.40;68.80;;;;;;5032357;28;20092;-90
2021/09/08 01:09:37;;;;;;;9.48;6.97;;;18.40;69.00;;;;;;5035482;28;20045;-90
2021/09/08 01:12:05;;;;;;;9.10;6.15;;;18.30;69.10;;;;;;5035293;28;20045;-90
2021/09/08 01:14:32;;;;;;;14.70;6.70;;;18.30;69.10;;;;;;5035169;28;20049;-90
2021/09/08 01:16:59;;;;;;;10.63;7.00;;;18.30;69.00;;;;;;5034914;28;20057;-90
2021/09/08 01:19:26;;;;;;;9.95;7.22;;;18.30;68.90;;;;;;5034834;28;20041;-90
2021/09/08 01:21:53;;;;;;;9.38;6.80;;;18.20;69.00;;;;;;5034996;28;20099;-90
2021/09/08 01:24:22;;;;;;;11.27;7.15;;;18.20;69.00;;;;;;5034957;28;20053;-92
2021/09/08 01:26:50;;;;;;;12.65;7.00;;;18.10;69.00;;;;;;5035572;28;20109;-91
2021/09/08 01:29:17;;;;;;;10.95;7.07;;;18.10;69.10;;;;;;5034872;28;20080;-91
2021/09/08 01:31:55;;;;;;;10.55;6.78;;;18.10;69.30;;;;;;5035041;28;20052;-91
2021/09/08 01:34:23;;;;;;;7.75;5.88;;;18.10;69.40;;;;;;5035032;28;20504;-90
2021/09/08 01:36:51;;;;;;;10.23;6.78;;;18.00;69.30;;;;;;5034736;28;20046;-91
2021/09/08 01:39:19;;;;;;;9.68;6.82;;;18.00;69.20;;;;;;5034590;28;20057;-90
2021/09/08 01:41:48;;;;;;;8.50;6.15;;;18.00;69.20;;;;;;5035277;28;20050;-92
2021/09/08 01:44:20;;;;;;;8.85;6.32;;;17.90;69.20;;;;;;5034061;28;20099;-92
2021/09/08 01:46:50;;;;;;;10.20;6.15;;;17.90;69.20;;;;;;5034595;28;20046;-92
2021/09/08 01:49:17;;;;;;;8.75;6.43;;;17.90;69.10;;;;;;5034615;28;20053;-91
2021/09/08 01:51:44;;;;;;;8.52;6.70;;;17.90;69.10;;;;;;5034430;28;20041;-91
2021/09/08 01:54:11;;;;;;;12.50;7.00;;;17.80;69.20;;;;;;5034419;28;20049;-91
2021/09/08 01:56:39;;;;;;;10.52;6.68;;;17.80;69.40;;;;;;5035056;28;20048;-90
2021/09/08 01:59:06;;;;;;;12.68;7.22;;;17.80;69.40;;;;;;5033942;28;20057;-91
2021/09/08 02:01:33;;;;;;;11.20;7.10;;;17.70;69.40;;;;;;5034065;28;20042;-90
2021/09/08 02:04:00;;;;;;;11.48;6.75;;;17.70;69.40;;;;;;5034125;28;20496;-92
2021/09/08 02:06:28;;;;;;;11.20;6.95;;;17.60;69.40;;;;;;5034372;28;20041;-91
2021/09/08 02:08:58;;;;;;;10.50;6.80;;;17.60;69.50;;;;;;5031000;28;20053;-90
2021/09/08 02:11:26;;;;;;;13.20;6.90;;;17.60;69.40;;;;;;5034285;28;20431;-90
2021/09/08 02:13:53;;;;;;;8.95;6.20;;;17.50;69.40;;;;;;5033883;28;20083;-90
2021/09/08 02:16:22;;;;;;;10.88;7.20;;;17.50;69.30;;;;;;5034062;28;20053;-90
2021/09/08 02:18:50;;;;;;;9.30;6.75;;;17.50;69.40;;;;;;5032998;28;20064;-91
2021/09/08 02:21:17;;;;;;;13.20;7.55;;;17.40;69.70;;;;;;5033310;28;20112;-91
2021/09/08 02:23:45;;;;;;;11.65;6.95;;;17.40;70.00;;;;;;5033921;28;20417;-91
2021/09/08 02:26:12;;;;;;;8.90;6.65;;;17.40;70.00;;;;;;5033936;28;20057;-90
2021/09/08 02:28:39;;;;;;;9.90;6.70;;;17.40;70.00;;;;;;5033904;28;20452;-91
2021/09/08 02:31:06;;;;;;;11.48;7.43;;;17.40;70.00;;;;;;5034133;28;20115;-91
2021/09/08 02:33:34;;;;;;;10.00;6.78;;;17.40;70.00;;;;;;5034102;28;20046;-90
2021/09/08 02:36:01;;;;;;;11.77;7.70;;;17.40;70.00;;;;;;5034073;28;20061;-91
2021/09/08 02:38:30;;;;;;;10.57;6.75;;;17.40;70.20;;;;;;5034175;28;20103;-91
2021/09/08 02:41:06;;;;;;;12.80;6.95;;;17.30;70.10;;;;;;5033697;28;20511;-90
2021/09/08 02:43:34;;;;;;;8.93;7.00;;;17.30;69.90;;;;;;5032884;28;20049;-91
2021/09/08 02:46:04;;;;;;;10.35;7.50;;;17.30;69.80;;;;;;5033560;28;20104;-91
2021/09/08 02:48:32;;;;;;;11.57;7.25;;;17.20;69.90;;;;;;5033611;28;20054;-89
2021/09/08 02:51:00;;;;;;;10.95;6.93;;;17.20;70.10;;;;;;5033963;28;20083;-90
2021/09/08 02:53:27;;;;;;;11.90;8.13;;;17.20;70.00;;;;;;5033780;28;20057;-91
2021/09/08 02:55:54;;;;;;;13.55;7.55;;;17.10;69.90;;;;;;5032917;28;20045;-90
2021/09/08 02:58:21;;;;;;;10.38;7.55;;;17.10;69.90;;;;;;5033081;28;20095;-92
2021/09/08 03:00:48;;;;;;;13.02;7.50;;;17.10;70.00;;;;;;5033227;28;20573;-92
2021/09/08 03:03:15;;;;;;;10.07;7.43;;;17.00;70.10;;;;;;5033466;28;20066;-91
2021/09/08 03:05:43;;;;;;;11.68;7.63;;;16.90;70.00;;;;;;5033789;28;20056;-90
2021/09/08 03:08:09;;;;;;;10.05;7.53;;;16.90;69.90;;;;;;5033473;28;20053;-91
2021/09/08 03:10:36;;;;;;;12.68;7.43;;;16.90;70.00;;;;;;5032916;28;20385;-92
2021/09/08 03:13:03;;;;;;;10.10;6.93;;;16.90;70.10;;;;;;5033149;28;20049;-91
2021/09/08 03:15:31;;;;;;;14.75;8.02;;;16.90;70.00;;;;;;5033258;28;20048;-90
2021/09/08 03:17:58;;;;;;;10.50;8.02;;;16.90;69.80;;;;;;5032326;28;20053;-92
2021/09/08 03:20:25;;;;;;;10.77;7.88;;;16.80;69.80;;;;;;5032024;28;20107;-91
2021/09/08 03:22:52;;;;;;;11.98;7.75;;;16.80;70.00;;;;;;5032774;28;20397;-91
2021/09/08 03:25:19;;;;;;;10.57;6.68;;;16.80;70.10;;;;;;5032595;28;20049;-91
2021/09/08 03:27:46;;;;;;;11.10;7.85;;;16.80;70.30;;;;;;5032930;28;20103;-90
2021/09/08 03:30:13;;;;;;;9.82;7.28;;;16.70;70.30;;;;;;5032411;28;20099;-90
2021/09/08 03:32:40;;;;;;;10.85;6.93;;;16.70;70.30;;;;;;5033492;28;20053;-90
2021/09/08 03:35:08;;;;;;;11.68;7.07;;;16.60;70.30;;;;;;5032766;28;20401;-90
2021/09/08 03:37:36;;;;;;;10.65;7.55;;;16.60;70.10;;;;;;5032398;28;20490;-92
2021/09/08 03:40:03;;;;;;;12.13;6.97;;;16.60;70.00;;;;;;5032180;28;20107;-91
2021/09/08 03:42:30;;;;;;;10.77;6.68;;;16.60;70.00;;;;;;5032875;28;20079;-90
2021/09/08 03:44:57;;;;;;;14.60;7.97;;;16.50;70.00;;;;;;5033278;28;20099;-89
2021/09/08 03:47:24;;;;;;;15.95;8.43;;;16.50;69.90;;;;;;5032929;28;20045;-91
2021/09/08 03:49:51;;;;;;;8.23;6.15;;;16.40;70.10;;;;;;5032698;28;20104;-92
2021/09/08 03:52:18;;;;;;;9.05;6.68;;;16.40;70.30;;;;;;5032402;28;20049;-90
2021/09/08 03:54:45;;;;;;;10.05;6.88;;;16.40;70.40;;;;;;5032103;28;20072;-92
2021/09/08 03:57:12;;;;;;;11.02;7.20;;;16.40;70.50;;;;;;5032328;28;20057;-91
2021/09/08 03:59:41;;;;;;;10.88;7.47;;;16.40;70.60;;;;;;5033188;28;20045;-91
2021/09/08 04:02:08;;;;;;;11.77;7.75;;;16.40;70.50;;;;;;5032169;28;20578;-91
2021/09/08 04:04:36;;;;;;;11.00;7.72;;;16.30;70.40;;;;;;5031087;28;20048;-90
2021/09/08 04:07:03;;;;;;;11.63;8.07;;;16.30;70.40;;;;;;5032560;28;20053;-90
2021/09/08 04:09:31;;;;;;;9.38;7.25;;;16.30;70.30;;;;;;5031869;28;20500;-92
2021/09/08 04:11:58;;;;;;;12.50;7.95;;;16.30;70.30;;;;;;5032979;28;20053;-88
2021/09/08 04:14:24;;;;;;;14.18;7.28;;;16.20;70.40;;;;;;5032006;28;20045;-92
2021/09/08 04:16:51;;;;;;;10.40;8.23;;;16.20;70.40;;;;;;5031313;28;20061;-92
2021/09/08 04:19:20;;;;;;;11.10;7.28;;;16.20;70.70;;;;;;5032247;28;20045;-90
2021/09/08 04:21:47;;;;;;;10.35;7.13;;;16.10;70.90;;;;;;5032199;28;20049;-93
2021/09/08 04:24:14;;;;;;;9.15;6.88;;;16.10;70.90;;;;;;5032187;28;20049;-90
2021/09/08 04:26:40;;;;;;;11.50;8.30;;;16.10;71.00;;;;;;5032893;28;20049;-92
2021/09/08 04:29:07;;;;;;;11.20;8.27;;;16.10;71.10;;;;;;5031893;28;20053;-90
2021/09/08 04:31:34;;;;;;;10.20;8.18;;;16.10;71.10;;;;;;5032033;28;20508;-91
2021/09/08 04:34:06;;;;;;;10.50;7.28;;;16.00;71.00;;;;;;5030921;28;20053;-91
2021/09/08 04:36:33;;;;;;;12.07;7.93;;;16.00;70.80;;;;;;5032154;28;20091;-91
2021/09/08 04:39:01;;;;;;;15.88;8.55;;;15.90;70.80;;;;;;5032140;28;20108;-90
2021/09/08 04:41:28;;;;;;;11.02;8.27;;;15.90;70.80;;;;;;5032520;28;20080;-92
2021/09/08 04:43:55;;;;;;;13.38;8.73;;;15.90;70.90;;;;;;5035918;28;20069;-91
2021/09/08 04:46:22;;;;;;;14.02;8.30;;;15.90;70.90;;;;;;5035994;28;20428;-92
2021/09/08 04:48:49;;;;;;;12.43;9.05;;;15.90;71.00;;;;;;5035990;28;20037;-92
2021/09/08 04:51:16;;;;;;;13.75;8.52;;;15.80;71.10;;;;;;5036522;28;20068;-92
2021/09/08 04:53:44;;;;;;;17.83;9.63;;;15.80;71.40;;;;;;5036239;28;20068;-91
2021/09/08 04:56:11;;;;;;;20.35;11.93;;;15.80;71.60;;;;;;5035891;28;20046;-92
2021/09/08 04:58:37;;;;;;;13.18;8.80;;;15.70;72.20;;;;;;5035754;28;20108;-91
2021/09/08 05:01:05;;;;;;;13.82;9.05;;;15.80;72.50;;;;;;5035914;28;20582;-90
2021/09/08 05:03:32;;;;;;;13.15;9.75;;;15.70;72.60;;;;;;5035876;28;20057;-92
2021/09/08 05:06:00;;;;;;;11.65;8.95;;;15.70;72.70;;;;;;5036149;28;20081;-91
2021/09/08 05:08:27;;;;;;;15.50;10.23;;;15.70;72.70;;;;;;5034759;28;20107;-93
2021/09/08 05:10:54;;;;;;;14.75;10.10;;;15.70;72.70;;;;;;5035617;28;20124;-93
2021/09/08 05:13:21;;;;;;;14.50;9.27;;;15.70;72.60;;;;;;5035471;28;20057;-92
2021/09/08 05:15:47;;;;;;;14.20;9.73;;;15.70;72.60;;;;;;5035539;28;20054;-91
2021/09/08 05:18:14;;;;;;;12.05;9.45;;;15.70;72.70;;;;;;5035572;28;20056;-89
2021/09/08 05:20:43;;;;;;;16.88;10.20;;;15.70;72.80;;;;;;5036209;28;20050;-91
2021/09/08 05:23:10;;;;;;;12.60;8.98;;;15.70;72.90;;;;;;5035088;28;20064;-91
2021/09/08 05:25:37;;;;;;;12.20;9.63;;;15.70;72.80;;;;;;5034330;28;20055;-92
2021/09/08 05:28:04;;;;;;;12.55;9.48;;;15.70;72.80;;;;;;5035452;28;20065;-92
2021/09/08 05:30:31;;;;;;;14.60;10.52;;;15.70;72.80;;;;;;5035413;28;20045;-92
2021/09/08 05:32:58;;;;;;;11.77;8.85;;;15.70;72.90;;;;;;5035548;28;20140;-91
2021/09/08 05:35:25;;;;;;;14.75;9.90;;;15.60;73.00;;;;;;5035002;28;20042;-91
2021/09/08 05:37:52;;;;;;;16.45;10.52;;;15.60;73.00;;;;;;5036380;28;20057;-93
2021/09/08 05:40:19;;;;;;;14.52;10.65;;;15.70;73.10;;;;;;5031535;28;20060;-92
2021/09/08 05:42:46;;;;;;;19.10;12.07;;;15.70;73.20;;;;;;5031263;28;20054;-94
2021/09/08 05:45:13;;;;;;;18.30;13.68;;;15.70;73.60;;;;;;5017527;28;20129;-92
2021/09/08 05:47:39;;;;;;;18.27;14.32;;;15.60;73.90;;;;;;5030285;28;20112;-90
2021/09/08 05:50:07;;;;;;;18.95;13.85;;;15.60;74.30;;;;;;5021187;28;20496;-87
2021/09/08 05:52:34;;;;;;;17.10;11.50;;;15.70;74.60;;;;;;5020559;28;20053;-87
2021/09/08 05:55:02;;;;;;;18.58;14.30;;;15.70;74.90;;;;;;5031065;28;20591;-90
2021/09/08 05:57:29;;;;;;;20.33;13.57;;;15.70;75.00;;;;;;5016694;28;20041;-86
2021/09/08 05:59:56;;;;;;;18.27;12.95;;;15.70;75.20;;;;;;5035142;28;20458;-88
2021/09/08 06:02:23;;;;;;;17.50;13.10;;;15.70;75.30;;;;;;5014277;28;20046;-86
2021/09/08 06:04:50;;;;;;;21.55;14.30;;;15.80;75.30;;;;;;5013837;28;20053;-86
2021/09/08 06:07:17;;;;;;;19.73;15.13;;;15.80;75.40;;;;;;5017475;28;20488;-87
2021/09/08 06:09:44;;;;;;;20.45;14.43;;;15.80;75.40;;;;;;5031430;28;20049;-88
2021/09/08 06:12:11;;;;;;;21.15;15.00;;;15.80;75.50;;;;;;5014408;28;20492;-88
2021/09/08 06:14:38;;;;;;;17.27;14.52;;;15.80;75.60;;;;;;5028245;28;20136;-87
2021/09/08 06:17:06;;;;;;;21.05;14.30;;;15.90;75.70;;;;;;5024921;28;20104;-88
2021/09/08 06:19:35;;;;;;;22.13;13.43;;;15.90;75.80;;;;;;5027469;28;20052;-87
2021/09/08 06:22:03;;;;;;;21.50;13.73;;;15.90;75.90;;;;;;5020538;28;20103;-87
2021/09/08 06:24:30;;;;;;;21.30;14.82;;;15.90;76.00;;;;;;5029677;28;20123;-90
2021/09/08 06:26:59;;;;;;;20.88;16.00;;;15.90;76.20;;;;;;5029745;28;20084;-87
2021/09/08 06:29:26;;;;;;;22.27;15.10;;;15.90;76.30;;;;;;5026554;28;20057;-88
2021/09/08 06:31:53;;;;;;;21.92;14.30;;;15.90;76.40;;;;;;5028026;28;20045;-87
2021/09/08 06:34:20;;;;;;;17.23;12.85;;;15.90;76.50;;;;;;5029530;28;20482;-90
2021/09/08 06:36:49;;;;;;;18.13;13.40;;;15.90;76.60;;;;;;5027379;28;20042;-88
2021/09/08 06:39:16;;;;;;;22.75;14.23;;;16.00;76.60;;;;;;5030021;28;20107;-87
2021/09/08 06:41:48;;;;;;;19.50;15.15;;;16.00;76.70;;;;;;5027809;28;20500;-89
2021/09/08 06:44:15;;;;;;;20.95;13.25;;;16.10;76.70;;;;;;5020262;28;20137;-88
2021/09/08 06:46:42;;;;;;;21.70;14.77;;;16.10;76.60;;;;;;5024498;28;20061;-87
2021/09/08 06:49:09;;;;;;;18.50;12.70;;;16.20;76.60;;;;;;5029357;28;20049;-90
2021/09/08 06:51:36;;;;;;;20.13;13.63;;;16.20;76.50;;;;;;5032024;28;20084;-90
2021/09/08 06:54:03;;;;;;;23.48;14.13;;;16.30;76.50;;;;;;5030031;28;20463;-88
2021/09/08 06:56:30;;;;;;;16.42;12.45;;;16.30;76.60;;;;;;5021366;28;20045;-90
2021/09/08 06:58:57;;;;;;;22.38;15.30;;;16.40;76.70;;;;;;5013039;28;20100;-89
2021/09/08 07:01:24;;;;;;;21.15;15.35;;;16.40;76.70;;;;;;5023687;28;20447;-88
2021/09/08 07:03:51;;;;;;;22.00;15.32;;;16.40;76.80;;;;;;5028815;28;20136;-89
2021/09/08 07:06:20;;;;;;;19.88;15.43;;;16.50;77.00;;;;;;5029995;28;20069;-88
2021/09/08 07:08:47;;;;;;;19.88;16.23;;;16.60;77.10;;;;;;5031737;28;20049;-89
2021/09/08 07:11:14;;;;;;;23.15;16.65;;;16.60;77.30;;;;;;5019693;28;20093;-89
2021/09/08 07:13:41;;;;;;;21.77;16.65;;;16.70;77.30;;;;;;5018632;28;20505;-89
2021/09/08 07:16:08;;;;;;;21.50;15.52;;;16.80;77.50;;;;;;5017807;28;20054;-88
2021/09/08 07:18:35;;;;;;;28.52;16.42;;;16.80;77.50;;;;;;5013946;28;20054;-88
2021/09/08 07:21:03;;;;;;;21.90;15.52;;;16.90;77.50;;;;;;5031371;28;20053;-89
2021/09/08 07:23:31;;;;;;;24.25;16.30;;;17.00;77.50;;;;;;5031442;28;20053;-90
2021/09/08 07:25:58;;;;;;;21.75;16.20;;;17.00;77.40;;;;;;5015045;28;20506;-89
2021/09/08 07:28:25;;;;;;;20.10;15.95;;;17.10;77.40;;;;;;5020355;28;20053;-89
2021/09/08 07:30:53;;;;;;;21.77;16.45;;;17.20;77.30;;;;;;5016085;28;20053;-91
2021/09/08 07:33:21;;;;;;;21.20;15.52;;;17.30;77.20;;;;;;5012016;28;20542;-90
2021/09/08 07:35:48;;;;;;;21.13;15.05;;;17.40;77.10;;;;;;5017434;28;20038;-89
2021/09/08 07:38:17;;;;;;;22.42;16.50;;;17.40;77.00;;;;;;5017386;28;20050;-92
2021/09/08 07:40:44;;;;;;;22.33;14.35;;;17.50;76.90;;;;;;5025350;28;20495;-92
2021/09/08 07:43:12;;;;;;;19.25;14.77;;;17.60;76.70;;;;;;5026712;28;20064;-90
2021/09/08 07:45:39;;;;;;;21.38;15.05;;;17.70;76.60;;;;;;5014784;28;20042;-89
2021/09/08 07:48:06;;;;;;;23.98;15.10;;;17.80;76.40;;;;;;5013781;28;20076;-91
2021/09/08 07:50:33;;;;;;;17.70;14.60;;;17.90;76.10;;;;;;5025862;28;20515;-89
2021/09/08 07:53:02;;;;;;;19.50;15.10;;;17.90;75.90;;;;;;5028297;28;20089;-89
2021/09/08 07:55:29;;;;;;;19.25;14.32;;;18.10;75.80;;;;;;5030551;28;20046;-91
2021/09/08 07:57:56;;;;;;;21.23;15.60;;;18.10;75.30;;;;;;5028577;28;20045;-89
2021/09/08 08:00:23;;;;;;;18.30;14.43;;;18.20;75.10;;;;;;5013051;28;20104;-88
2021/09/08 08:02:52;;;;;;;22.63;15.10;;;18.30;74.90;;;;;;5017055;28;20505;-90
2021/09/08 08:05:20;;;;;;;20.20;13.23;;;18.40;74.80;;;;;;5027929;28;20060;-91
2021/09/08 08:07:47;;;;;;;20.88;14.20;;;18.50;74.70;;;;;;5025453;28;20103;-92
2021/09/08 08:10:16;;;;;;;20.92;14.68;;;18.70;74.50;;;;;;5025654;28;20054;-90
2021/09/08 08:12:43;;;;;;;20.88;14.45;;;18.80;74.20;;;;;;5031191;28;20053;-89
2021/09/08 08:15:11;;;;;;;20.67;13.98;;;18.90;74.00;;;;;;5013235;28;20054;-91
2021/09/08 08:17:38;;;;;;;19.80;14.13;;;19.00;73.70;;;;;;5012644;28;20056;-88
2021/09/08 08:20:10;;;;;;;19.90;14.50;;;19.10;73.50;;;;;;5012200;28;20146;-88
2021/09/08 08:22:41;;;;;;;23.65;13.57;;;19.30;73.30;;;;;;5013988;28;20062;-90
2021/09/08 08:25:11;;;;;;;23.15;14.38;;;19.40;72.80;;;;;;5018823;28;20053;-92
2021/09/08 08:27:38;;;;;;;24.10;13.45;;;19.50;72.60;;;;;;5027993;28;20550;-90
2021/09/08 08:30:07;;;;;;;18.60;13.38;;;19.60;72.40;;;;;;5031000;28;20053;-92
2021/09/08 08:32:34;;;;;;;17.23;14.48;;;19.70;71.80;;;;;;5013430;28;20046;-90
2021/09/08 08:35:03;;;;;;;19.33;14.40;;;19.90;71.40;;;;;;5016464;28;20559;-91
2021/09/08 08:37:30;;;;;;;28.10;13.80;;;19.90;71.00;;;;;;5022995;28;20050;-93
2021/09/08 08:39:57;;;;;;;15.63;12.45;;;20.10;70.90;;;;;;5031064;28;20049;-94
2021/09/08 08:42:27;;;;;;;16.38;13.25;;;20.20;70.70;;;;;;5013437;28;20443;-94
2021/09/08 08:44:55;;;;;;;18.85;13.05;;;20.40;70.60;;;;;;5012817;28;20046;-89
2021/09/08 08:47:22;;;;;;;17.83;12.65;;;20.50;70.50;;;;;;5011894;28;20427;-91
2021/09/08 08:49:52;;;;;;;18.38;12.13;;;20.60;70.00;;;;;;5016037;28;20053;-94
2021/09/08 08:52:20;;;;;;;15.10;11.43;;;20.80;69.10;;;;;;5015167;28;20096;-92
2021/09/08 08:54:47;;;;;;;14.55;11.40;;;20.90;68.60;;;;;;5013227;28;20042;-93
2021/09/08 08:57:15;;;;;;;20.90;11.82;;;21.00;68.40;;;;;;5029995;28;20053;-93
2021/09/08 08:59:44;;;;;;;19.30;11.65;;;21.20;67.80;;;;;;5016187;28;20085;-93
2021/09/08 09:02:17;;;;;;;15.10;11.23;;;21.30;67.40;;;;;;5029554;28;20057;-96
2021/09/08 09:04:45;;;;;;;16.23;10.95;;;21.50;67.30;;;;;;5020383;28;20049;-92
2021/09/08 09:07:35;;;;;;;15.25;10.43;;;21.60;66.90;;;;;;5023158;28;20057;-93
2021/09/08 09:10:09;;;;;;;23.50;12.00;;;21.80;66.10;;;;;;5025292;28;20109;-92
2021/09/08 09:12:38;;;;;;;;;;;21.90;65.70;;;;;;5029423;28;20132;-91
2021/09/08 09:15:11;;;;;;;12.73;8.90;;;22.10;65.30;;;;;;5015523;28;20415;-93
2021/09/08 09:17:39;;;;;;;12.10;9.37;;;22.30;64.80;;;;;;5030560;28;20053;-92
2021/09/08 09:20:08;;;;;;;13.68;9.05;;;22.40;64.30;;;;;;5015109;28;20448;-93
2021/09/08 09:22:48;;;;;;;13.32;9.50;;;22.50;63.80;;;;;;5013128;28;20413;-92
2021/09/08 09:25:24;;;;;;;11.00;8.82;;;22.70;63.10;;;;;;5021857;28;20054;-94
2021/09/08 09:27:55;;;;;;;11.88;8.25;;;22.80;63.20;;;;;;5024776;28;20535;-92
2021/09/08 09:30:26;;;;;;;14.10;9.35;;;23.00;63.00;;;;;;5015049;28;20107;-92
2021/09/08 09:32:55;;;;;;;14.05;7.97;;;23.20;62.60;;;;;;5018939;28;20053;-91
2021/09/08 09:35:25;;;;;;;10.90;7.68;;;23.30;61.80;;;;;;5032437;28;20045;-93
2021/09/08 09:37:54;;;;;;;12.98;8.68;;;23.40;61.40;;;;;;5027347;28;20400;-91
2021/09/08 09:40:26;;;;;;;13.65;8.23;;;23.60;61.10;;;;;;5018106;28;20049;-90
2021/09/08 09:42:55;;;;;;;12.25;7.97;;;23.80;60.30;;;;;;5030894;28;20054;-91
2021/09/08 09:45:22;;;;;;;9.57;7.88;;;23.90;59.00;;;;;;5031026;28;20088;-91
2021/09/08 09:47:49;;;;;;;14.30;8.07;;;24.00;58.60;;;;;;5015178;28;20054;-91
2021/09/08 09:50:20;;;;;;;11.05;8.30;;;24.10;58.40;;;;;;5023476;28;20116;-90
2021/09/08 09:52:52;;;;;;;13.38;7.82;;;24.20;58.00;;;;;;5019738;28;20099;-91
2021/09/08 09:55:20;;;;;;;11.18;8.20;;;24.30;58.00;;;;;;5019365;28;20057;-93
2021/09/08 09:57:47;;;;;;;13.35;7.53;;;24.40;57.80;;;;;;5018690;28;20099;-92
2021/09/08 10:00:16;;;;;;;12.60;7.53;;;24.50;57.20;;;;;;5014772;28;20061;-93
2021/09/08 10:02:44;;;;;;;11.90;7.82;;;24.60;56.60;;;;;;5028787;28;20054;-92
2021/09/08 10:05:14;;;;;;;12.57;7.50;;;24.70;56.40;;;;;;5020894;28;20053;-91
2021/09/08 10:07:41;;;;;;;10.25;7.40;;;24.80;56.30;;;;;;5028182;28;20045;-95
2021/09/08 10:10:19;;;;;;;9.90;7.28;;;24.90;56.10;;;;;;5033210;28;20049;-91
2021/09/08 10:13:02;;;;;;;12.45;7.60;;;25.00;55.50;;;;;;5031141;28;20053;-90
2021/09/08 10:15:31;;;;;;;12.82;6.82;;;25.10;55.50;;;;;;5015183;28;20050;-85
2021/09/08 10:18:08;;;;;;;12.85;8.15;;;25.30;55.60;;;;;;5015690;28;20084;-90
2021/09/08 10:20:35;;;;;;;17.20;7.60;;;25.40;55.60;;;;;;5029191;28;20058;-89
2021/09/08 10:23:10;;;;;;;15.48;7.60;;;25.60;55.60;;;;;;5020414;28;20053;-88
2021/09/08 10:25:44;;;;;;;11.07;7.20;;;25.70;55.10;;;;;;5020553;28;20046;-94
2021/09/08 10:28:15;;;;;;;9.82;6.63;;;25.90;54.80;;;;;;5018859;28;20108;-93
2021/09/08 10:30:43;;;;;;;11.63;6.88;;;26.00;54.30;;;;;;5017243;28;20041;-93
2021/09/08 10:33:10;;;;;;;12.45;6.90;;;26.10;54.30;;;;;;5031917;28;20061;-91
2021/09/08 10:35:39;;;;;;;13.80;6.53;;;26.20;54.00;;;;;;5020467;28;20046;-92
2021/09/08 10:38:12;;;;;;;9.32;6.70;;;26.30;53.70;;;;;;5022326;28;20069;-91
2021/09/08 10:40:42;;;;;;;9.73;6.70;;;26.40;52.90;;;;;;5024894;28;20053;-93
2021/09/08 10:43:09;;;;;;;10.27;6.72;;;26.50;52.50;;;;;;5028259;28;20108;-93
2021/09/08 10:45:51;;;;;;;14.50;6.50;;;26.60;52.40;;;;;;5030011;28;20471;-94
2021/09/08 10:48:40;;;;;;;9.43;6.38;;;26.70;52.30;;;;;;5032853;28;20045;-90
2021/09/08 10:51:11;;;;;;;10.63;6.45;;;26.80;52.20;;;;;;5030335;28;20137;-93
2021/09/08 10:53:39;;;;;;;11.07;6.20;;;26.90;51.40;;;;;;5014291;28;20061;-92
2021/09/08 10:56:07;;;;;;;11.55;6.53;;;26.90;51.20;;;;;;5012505;28;20042;-94
2021/09/08 10:58:57;;;;;;;10.15;6.40;;;27.10;51.60;;;;;;5018939;28;20100;-89
2021/09/08 11:01:25;;;;;;;14.52;6.35;;;27.10;51.10;;;;;;5018890;28;20049;-92
2021/09/08 11:03:53;;;;;;;9.30;6.30;;;27.30;51.00;;;;;;5022244;28;20420;-93
2021/09/08 11:06:34;;;;;;;11.18;6.40;;;27.30;50.40;;;;;;5021778;28;20053;-92
2021/09/08 11:09:07;;;;;;;10.40;6.13;;;27.40;50.60;;;;;;5031726;28;20041;-94
2021/09/08 11:11:47;;;;;;;9.48;5.70;;;27.50;50.90;;;;;;5030830;28;20057;-92
2021/09/08 11:14:16;;;;;;;9.85;6.38;;;27.70;51.00;;;;;;5031043;28;20049;-93
2021/09/08 11:16:42;;;;;;;8.70;5.93;;;27.80;49.90;;;;;;5033245;28;20049;-93
2021/09/08 11:19:13;;;;;;;11.95;6.07;;;27.90;49.60;;;;;;5028306;28;20057;-94
2021/09/08 11:21:40;;;;;;;7.78;5.93;;;28.00;49.20;;;;;;5034058;28;20496;-95
2021/09/08 11:24:10;;;;;;;8.35;6.05;;;28.10;49.00;;;;;;5030969;28;20049;-94
2021/09/08 11:26:39;;;;;;;7.85;5.68;;;28.20;48.90;;;;;;5033450;28;20451;-93
2021/09/08 11:29:13;;;;;;;11.05;6.10;;;28.20;48.40;;;;;;5029506;28;20049;-94
2021/09/08 11:31:46;;;;;;;11.07;5.65;;;28.30;47.90;;;;;;5029134;28;20053;-95
2021/09/08 11:34:25;;;;;;;8.73;5.57;;;28.30;47.40;;;;;;5021453;28;20045;-95
2021/09/08 11:36:54;;;;;;;10.80;6.00;;;28.40;47.70;;;;;;5019272;28;20492;-93
2021/09/08 11:39:23;;;;;;;13.55;5.60;;;28.50;47.60;;;;;;5015058;28;20050;-92
2021/09/08 11:41:55;;;;;;;10.88;5.15;;;28.50;46.30;;;;;;5017316;28;20050;-91
2021/09/08 11:44:22;;;;;;;9.05;6.25;;;28.50;46.60;;;;;;5016831;28;20444;-94
2021/09/08 11:46:49;;;;;;;7.28;5.07;;;28.60;46.80;;;;;;5026737;28;20201;-92
2021/09/08 11:49:16;;;;;;;7.35;4.95;;;28.70;46.40;;;;;;5031646;28;20045;-92
2021/09/08 11:51:45;;;;;;;6.93;4.95;;;28.70;46.00;;;;;;5030947;28;20131;-91
2021/09/08 11:54:24;;;;;;;8.73;5.07;;;28.80;45.80;;;;;;5014622;28;20397;-91
2021/09/08 11:56:58;;;;;;;12.68;5.28;;;28.80;45.80;;;;;;5032511;28;20045;-91
2021/09/08 11:59:30;;;;;;;9.93;5.20;;;28.90;45.80;;;;;;5027183;28;20061;-91
2021/09/08 12:01:58;;;;;;;10.05;5.68;;;29.00;45.70;;;;;;5023060;28;20574;-93
2021/09/08 12:04:28;;;;;;;9.43;5.10;;;29.00;45.40;;;;;;5030157;28;20049;-91
2021/09/08 12:06:57;;;;;;;9.85;5.93;;;29.10;45.50;;;;;;5028266;28;20136;-92
2021/09/08 12:09:30;;;;;;;9.80;4.95;;;29.20;45.70;;;;;;5013980;28;20060;-90
2021/09/08 12:12:04;;;;;;;11.85;5.00;;;29.30;45.10;;;;;;5029092;28;20389;-90
2021/09/08 12:14:34;;;;;;;7.22;4.68;;;29.30;45.20;;;;;;5015928;28;20058;-90
2021/09/08 12:17:15;;;;;;;11.57;4.97;;;29.30;44.30;;;;;;5023860;28;20053;-90
2021/09/08 12:19:44;;;;;;;12.90;5.13;;;29.40;44.90;;;;;;5022993;28;20574;-94
2021/09/08 12:22:45;;;;;;;8.98;5.03;;;29.50;44.90;;;;;;5020065;28;20050;-94
2021/09/08 12:25:22;;;;;;;6.85;4.53;;;29.60;44.70;;;;;;5018801;28;20099;-93
2021/09/08 12:27:52;;;;;;;7.20;4.63;;;29.70;43.60;;;;;;5014813;28;20045;-93
2021/09/08 12:30:19;;;;;;;12.55;5.03;;;29.80;43.60;;;;;;5037490;28;20080;-96
2021/09/08 12:32:54;;;;;;;6.95;4.50;;;29.80;44.20;;;;;;5028993;28;20512;-95
2021/09/08 12:35:44;;;;;;;9.50;4.70;;;29.90;44.30;;;;;;5028532;28;20085;-93
2021/09/08 12:38:28;;;;;;;8.35;4.72;;;29.90;43.90;;;;;;5019872;28;20463;-91
2021/09/08 12:41:23;;;;;;;7.95;4.65;;;29.90;44.20;;;;;;5017770;28;20055;-92
2021/09/08 12:43:54;;;;;;;7.65;4.53;;;30.00;44.10;;;;;;5021470;28;20117;-93